Flight Track Log - Related Links

Times and Time Zones

All times are in EDT time to prevent confusion due to time zone crossing. See the SKW6306 flight status page for this flight to view local times or setup timezone preferences in your user account.

Time Position Orientation Groundspeed Altitude Reporting Facility
EDT Latitude Longitude Course Direction KTS MPH feet Rate Location/Type
Mon 02:02:20 PM 39.9500 -104.6833 346° North 201 231 7,500  Level Denver TRACON
Mon 02:03:20 PM 40.0167 -104.6667 11° North 272 313 8,500 1,316 Climbing Denver TRACON
Mon 02:04:00 PM 40.1630 -104.7706 347° North  Level FlightAware Approximate
Mon 02:04:14 PM 40.0892 -104.6606 North 291 335 10,000  Level Denver Center
Mon 02:05:00 PM 40.2682 -104.8021 347° North  Level FlightAware Approximate
Mon 02:05:16 PM 40.1750 -104.6461 North 308 354 11,900  Level Denver Center
Mon 02:06:00 PM 40.3731 -104.8355 346° North  Level FlightAware Approximate
Mon 02:06:18 PM 40.2728 -104.6311 North 332 382 13,600  Level Denver Center
Mon 02:07:00 PM 40.4776 -104.8703 346° North  Level FlightAware Approximate
Mon 02:07:20 PM 40.3614 -104.6125 North 324 373 15,200  Level Denver Center
Mon 02:08:22 PM 40.4603 -104.5872 11° North 338 389 16,800 1,306 Climbing Denver Center
Mon 02:09:24 PM 40.5531 -104.5697 North 341 392 17,900 1,248 Climbing Denver Center
Mon 02:10:27 PM 40.6542 -104.5961 349° North 349 402 19,400 1,248 Climbing Denver Center
Mon 02:11:29 PM 40.7506 -104.6189 350° North 335 386 20,500 976 Climbing Denver Center
Mon 02:12:30 PM 40.8469 -104.6436 349° North 348 400 21,400 927 Climbing Denver Center
Mon 02:13:32 PM 40.9456 -104.6667 350° North 359 413 22,400 919 Climbing Denver Center
Mon 02:14:34 PM 41.0494 -104.6867 352° North 363 418 23,300 1,104 Climbing Denver Center
Mon 02:15:37 PM 41.1625 -104.7158 349° North 369 425 24,700 1,008 Climbing Denver Center
Mon 02:16:39 PM 41.2592 -104.7378 350° North 368 423 25,400 629 Climbing Denver Center
Mon 02:17:41 PM 41.3569 -104.7617 350° North 372 428 26,000 629 Climbing Denver Center
Mon 02:18:43 PM 41.4733 -104.7894 350° North 379 436 26,700 629 Climbing Denver Center
Mon 02:19:45 PM 41.5742 -104.8164 349° North 385 443 27,300 581 Climbing Denver Center
Mon 02:20:47 PM 41.6922 -104.8447 350° North 385 443 27,900 581 Climbing Denver Center
Mon 02:21:49 PM 41.7936 -104.8708 349° North 386 444 28,500 629 Climbing Denver Center
Mon 02:22:51 PM 41.9128 -104.8981 350° North 387 445 29,200 629 Climbing Denver Center
Mon 02:23:53 PM 42.0147 -104.9236 349° North 388 447 29,800 629 Climbing Denver Center
Mon 02:24:55 PM 42.1311 -104.9533 349° North 382 440 30,500 629 Climbing Denver Center
Mon 02:25:57 PM 42.2317 -104.9772 350° North 380 437 31,100 532 Climbing Denver Center
Mon 02:26:59 PM 42.3483 -105.0050 350° North 378 435 31,600 432 Climbing Denver Center
Mon 02:28:02 PM 42.4469 -105.0306 349° North 377 434 32,000 175 Climbing Denver Center
Mon 02:29:16 PM 42.5825 -105.0650 349° North 383 441 32,000  Level Denver Center
Mon 02:30:18 PM 42.6875 -105.0931 349° North 393 452 32,000  Level Denver Center
Mon 02:31:21 PM 42.8125 -105.1233 350° North 404 465 32,000  Level Denver Center
Mon 02:32:23 PM 42.9214 -105.1497 350° North 412 474 32,000  Level Denver Center
Mon 02:33:25 PM 43.0306 -105.1769 350° North 415 478 32,000  Level Denver Center
Mon 02:34:27 PM 43.1583 -105.2092 350° North 416 479 32,000  Level Denver Center
Mon 02:35:29 PM 43.2683 -105.2372 349° North 419 482 32,000  Level Denver Center
Mon 02:36:31 PM 43.3942 -105.2692 350° North 414 476 32,000  Level Denver Center
Mon 02:37:33 PM 43.5031 -105.2972 349° North 414 476 32,000  Level Denver Center
Mon 02:38:35 PM 43.6286 -105.3297 349° North 412 474 32,000  Level Denver Center
Mon 02:39:37 PM 43.7353 -105.3572 349° North 408 470 32,000  Level Denver Center
Mon 02:40:39 PM 43.8575 -105.3881 350° North 402 463 32,000  Level Denver Center
Mon 02:41:41 PM 43.9622 -105.4156 349° North 400 460 32,000  Level Denver Center
Mon 02:42:43 PM 44.0825 -105.4475 349° North 396 456 32,000  Level Denver Center
Mon 02:43:45 PM 44.1842 -105.4772 348° North 393 452 32,000  Level Denver Center
Mon 02:44:48 PM 44.3033 -105.5086 349° North 391 450 32,000  Level Denver Center
Mon 02:45:50 PM 44.4050 -105.5344 350° North 389 448 32,000  Level Denver Center
Mon 02:46:52 PM 44.5058 -105.5600 350° North 386 444 32,000  Level Denver Center
Mon 02:47:54 PM 44.6197 -105.5931 348° North 380 437 32,000  Level Denver Center
Mon 02:48:24 PM 44.6736 -105.6081 349° North 384 442 32,000  Level Salt Lake Center
Mon 02:49:26 PM 44.7883 -105.6353 350° North 377 434 32,000  Level Salt Lake Center
Mon 02:49:58 PM 44.8336 -105.6511 346° North 377 434 32,000  Level Denver Center
Mon 02:50:28 PM 44.8872 -105.6628 351° North 377 434 32,000  Level Salt Lake Center
Mon 02:51:30 PM 45.0039 -105.6944 349° North 380 437 32,000  Level Salt Lake Center
Mon 02:52:32 PM 45.1033 -105.7214 349° North 380 437 32,000  Level Salt Lake Center
Mon 02:53:34 PM 45.2214 -105.7536 349° North 385 443 32,000  Level Salt Lake Center
Mon 02:54:36 PM 45.3247 -105.7817 349° North 390 449 32,000  Level Salt Lake Center
Mon 02:55:38 PM 45.4256 -105.8103 349° North 387 445 32,000  Level Salt Lake Center
Mon 02:56:40 PM 45.5428 -105.8417 349° North 384 442 32,000  Level Salt Lake Center
Mon 02:57:42 PM 45.6456 -105.8714 349° North 389 448 32,000  Level Salt Lake Center
Mon 02:58:44 PM 45.7628 -105.9031 349° North 386 444 32,000  Level Salt Lake Center
Mon 02:59:47 PM 45.8606 -105.9297 349° North 378 435 32,000  Level Salt Lake Center
Mon 03:00:49 PM 45.9761 -105.9578 350° North 376 433 32,000  Level Salt Lake Center
Mon 03:01:51 PM 46.0767 -105.9872 349° North 380 437 32,000  Level Salt Lake Center
Mon 03:02:53 PM 46.1947 -106.0219 348° North 386 444 32,000  Level Salt Lake Center
Mon 03:03:55 PM 46.2958 -106.0508 349° North 387 445 32,000  Level Salt Lake Center
Mon 03:04:57 PM 46.4125 -106.0864 348° North 385 443 32,000  Level Salt Lake Center
Mon 03:05:59 PM 46.5131 -106.1147 349° North 384 442 32,000  Level Salt Lake Center
Mon 03:07:01 PM 46.6283 -106.1494 348° North 382 440 32,000  Level Salt Lake Center
Mon 03:08:03 PM 46.7267 -106.1775 349° North 378 435 32,000  Level Salt Lake Center
Mon 03:09:05 PM 46.8403 -106.2108 349° North 373 429 32,000  Level Salt Lake Center
Mon 03:10:07 PM 46.9378 -106.2422 348° North 373 429 32,000  Level Salt Lake Center
Mon 03:11:09 PM 47.0403 -106.2708 349° North 374 430 32,000  Level Salt Lake Center
Mon 03:12:11 PM 47.1408 -106.3011 348° North 371 427 32,000  Level Salt Lake Center
Mon 03:13:13 PM 47.2608 -106.3347 349° North 371 427 32,000  Level Salt Lake Center
Mon 03:14:15 PM 47.3578 -106.3664 348° North 371 427 32,000  Level Salt Lake Center
Mon 03:15:17 PM 47.4644 -106.3978 349° North 370 426 32,000  Level Salt Lake Center
Mon 03:16:19 PM 47.5656 -106.4275 349° North 369 425 32,000  Level Salt Lake Center
Mon 03:17:21 PM 47.6667 -106.4583 348° North 371 427 32,000  Level Salt Lake Center
Mon 03:18:23 PM 47.7683 -106.4892 348° North 372 428 32,000  Level Salt Lake Center
Mon 03:19:25 PM 47.8711 -106.5194 349° North 375 432 32,000  Level Salt Lake Center
Mon 03:20:27 PM 47.9739 -106.5500 349° North 376 433 32,000  Level Salt Lake Center
Mon 03:21:29 PM 48.0939 -106.5892 348° North 371 427 32,000  Level Salt Lake Center
Mon 03:22:31 PM 48.1964 -106.6203 349° North 371 427 32,000  Level Salt Lake Center
Mon 03:23:33 PM 48.2975 -106.6661 343° North 377 434 32,000  Level Salt Lake Center
Mon 03:24:35 PM 48.3978 -106.7161 342° North 380 437 32,000  Level Salt Lake Center
Mon 03:25:37 PM 48.4986 -106.7664 342° North 381 438 32,000  Level Salt Lake Center
Mon 03:26:39 PM 48.6000 -106.8164 342° North 382 440 32,000  Level Salt Lake Center
Mon 03:27:41 PM 48.7228 -106.8778 342° North 386 444 32,000  Level Salt Lake Center
Mon 03:28:43 PM 48.8239 -106.9281 342° North 384 442 32,000  Level Salt Lake Center
Mon 03:29:27 PM 48.8833 -107.0000 321° Northwest 380 437 32,000  Level Winnipeg Center
Mon 03:30:27 PM 48.9833 -107.0500 342° North 390 449 32,000  Level Winnipeg Center
Mon 03:31:27 PM 49.0667 -107.1000 339° North 390 449 32,000  Level Winnipeg Center
Mon 03:32:27 PM 49.1833 -107.1500 344° North 390 449 32,000  Level Winnipeg Center
Mon 03:33:27 PM 49.2833 -107.2000 342° North 390 449 32,000  Level Winnipeg Center
Mon 03:34:27 PM 49.4000 -107.2500 344° North 390 449 32,000  Level Winnipeg Center
Mon 03:35:27 PM 49.4833 -107.3167 333° Northwest 390 449 32,000  Level Winnipeg Center
Mon 03:36:27 PM 49.6000 -107.3667 344° North 390 449 32,000  Level Winnipeg Center
Mon 03:37:27 PM 49.7000 -107.3833 354° North 400 460 32,000  Level Winnipeg Center
Mon 03:38:27 PM 49.8000 -107.3500 12° North 410 472 32,000  Level Winnipeg Center
Mon 03:39:27 PM 49.9333 -107.3000 14° North 410 472 32,000  Level Winnipeg Center
Mon 03:40:27 PM 50.0333 -107.2833 North 420 483 32,000  Level Winnipeg Center
Mon 03:41:27 PM 50.1500 -107.2333 15° North 420 483 32,000  Level Winnipeg Center
Mon 03:42:27 PM 50.2667 -107.2000 10° North 420 483 32,000  Level Winnipeg Center
Mon 03:43:27 PM 50.3833 -107.1500 15° North 420 483 32,000  Level Winnipeg Center
Mon 03:44:27 PM 50.5000 -107.1167 10° North 430 495 32,000  Level Winnipeg Center
Mon 03:45:27 PM 50.6167 -107.0667 15° North 430 495 32,000  Level Winnipeg Center
Mon 03:46:27 PM 50.7333 -107.0333 10° North 430 495 32,000  Level Winnipeg Center
Mon 03:47:27 PM 50.8500 -106.9833 15° North 430 495 32,000  Level Winnipeg Center
Mon 03:48:27 PM 50.9667 -106.9333 15° North 430 495 32,000 -150 Level Winnipeg Center
Mon 03:49:27 PM 51.0833 -106.9000 10° North 430 495 31,700 -1,900 Descending Winnipeg Center
Mon 03:50:27 PM 51.2000 -106.8500 15° North 440 506 28,200 -3,800 Descending Winnipeg Center
Mon 03:51:27 PM 51.3167 -106.7833 20° North 450 518 24,100 -4,000 Descending Winnipeg Center
Mon 03:52:27 PM 51.4500 -106.7667 North 450 518 20,200 -3,750 Descending Winnipeg Center
Mon 03:53:27 PM 51.5667 -106.7000 20° North 440 506 16,600 -3,500 Descending Winnipeg Center
Mon 03:54:27 PM 51.6667 -106.6667 12° North 410 472 13,200 -2,750 Descending Winnipeg Center
Mon 03:55:27 PM 51.7667 -106.6500 North 380 437 11,100 -1,600 Descending Winnipeg Center
Mon 03:56:27 PM 51.8667 -106.6000 17° North 320 368 10,000 -1,550 Descending Winnipeg Center
Mon 03:57:27 PM 51.9333 -106.6000 360° North 290 334 8,000 -2,000 Descending Winnipeg Center
Mon 03:58:27 PM 52.0167 -106.5667 14° North 280 322 6,000 -1,400 Descending Winnipeg Center
Mon 04:00:27 PM 52.1333 -106.5333 10° North 230 265 3,800 -1,033 Descending Winnipeg Center
Mon 04:01:27 PM 52.1500 -106.6167 288° West 190 219 2,900 -900 Descending Winnipeg Center
Mon 04:02:27 PM 52.1500 -106.6667 270° West 150 173 2,000 -900 Descending Winnipeg Center

Login

Don't have an account? Register now (free) for customized features, flight alerts, and more!